Time;durP1;ratioP1;P1;durP2;ratioP2;P2;SDS_P1;SDS_P2;PMS_P1;PMS_P2;Temp;Humidity;BMP_temperature;BMP_pressure;BME280_temperature;BME280_humidity;BME280_pressure;Samples;Min_cycle;Max_cycle;Signal;HPM_P1;HPM_P2
2022/09/05 00:00:10;;;;;;;;;;;486.90;2380.80;;;;;;4970715;28;19917;-63
2022/09/05 00:02:43;;;;;;;;;;;486.80;2380.80;;;;;;4970396;28;19910;-63
2022/09/05 00:05:15;;;;;;;;;;;486.80;2380.80;;;;;;4970567;28;20647;-62
2022/09/05 00:07:59;;;;;;;;;;;486.80;2380.80;;;;;;4970200;28;19910;-63
2022/09/05 00:10:28;;;;;;;;;;;486.90;2380.80;;;;;;4970352;28;19929;-63
2022/09/05 00:12:56;;;;;;;;;;;486.80;2380.80;;;;;;4953954;28;20353;-62
2022/09/05 00:15:33;;;;;;;;;;;486.80;2380.80;;;;;;4970058;28;20001;-59
2022/09/05 00:18:19;;;;;;;;;;;486.80;2380.80;;;;;;4970017;28;19914;-59
2022/09/05 00:20:47;;;;;;;;;;;486.80;2380.80;;;;;;4970187;28;19910;-63
2022/09/05 00:23:31;;;;;;;;;;;486.80;2380.80;;;;;;4969874;28;19933;-61
2022/09/05 00:26:16;;;;;;;;;;;486.80;2380.80;;;;;;4970204;28;19972;-62
2022/09/05 00:28:44;;;;;;;;;;;486.80;2380.80;;;;;;4979798;28;19914;-62
2022/09/05 00:31:18;;;;;;;;;;;486.90;2380.80;;;;;;4995403;28;19909;-61
2022/09/05 00:33:59;;;;;;;;;;;486.90;2380.80;;;;;;4995621;28;20063;-62
2022/09/05 00:36:40;;;;;;;;;;;486.90;2380.80;;;;;;4995507;28;20347;-62
2022/09/05 00:39:16;;;;;;;;;;;487.00;2380.80;;;;;;4995643;28;20366;-62
2022/09/05 00:41:43;;;;;;;;;;;487.00;2380.80;;;;;;4995371;28;19910;-64
2022/09/05 00:44:09;;;;;;;;;;;487.00;2380.80;;;;;;4995489;28;19910;-62
2022/09/05 00:46:37;;;;;;;;;;;487.00;2380.80;;;;;;4995533;28;19910;-63
2022/09/05 00:49:12;;;;;;;;;;;487.00;2380.80;;;;;;4995309;28;19914;-62
2022/09/05 00:51:41;;;;;;;;;;;487.00;2380.80;;;;;;4995284;28;20398;-62
2022/09/05 00:54:28;;;;;;;;;;;487.10;2380.80;;;;;;4995360;28;19918;-62
2022/09/05 00:57:13;;;;;;;;;;;487.00;2380.80;;;;;;4995412;28;19910;-62
2022/09/05 01:00:01;;;;;;;;;;;487.10;2380.80;;;;;;4995305;28;19997;-62
2022/09/05 01:02:30;;;;;;;;;;;487.00;2380.80;;;;;;4995143;28;19910;-62
2022/09/05 01:05:14;;;;;;;;;;;487.10;2380.80;;;;;;4995118;28;19910;-61
2022/09/05 01:07:58;;;;;;;;;;;487.10;2380.80;;;;;;4994412;28;19929;-58
2022/09/05 01:10:30;;;;;;;;;;;487.10;2380.80;;;;;;4992127;28;19922;-63
2022/09/05 01:12:55;;;;;;;;;;;487.10;2380.80;;;;;;4995027;28;19992;-63
2022/09/05 01:15:39;;;;;;;;;;;487.10;2380.80;;;;;;4994675;28;20379;-63
2022/09/05 01:18:05;;;;;;;;;;;487.10;2380.80;;;;;;4994882;28;19949;-63
2022/09/05 01:20:49;;;;;;;;;;;487.10;2380.80;;;;;;4994543;28;19968;-62
2022/09/05 01:23:33;;;;;;;;;;;486.90;2380.80;;;;;;5024578;28;19947;-64
2022/09/05 01:25:59;;;;;;;;;;;486.60;2380.80;;;;;;5034093;28;20378;-60
2022/09/05 01:28:32;;;;;;;;;;;486.50;2380.80;;;;;;5034245;28;19936;-61
2022/09/05 01:31:16;;;;;;;;;;;486.60;2380.80;;;;;;5034071;28;20397;-60
2022/09/05 01:33:52;;;;;;;;;;;486.80;2380.80;;;;;;5033674;28;19909;-62
2022/09/05 01:36:37;;;;;;;;;;;486.80;2380.80;;;;;;5033831;28;19923;-61
2022/09/05 01:39:16;;;;;;;;;;;486.80;2380.80;;;;;;5032901;28;19915;-59
2022/09/05 01:41:52;;;;;;;;;;;486.80;2380.80;;;;;;5033769;28;19952;-61
2022/09/05 01:44:20;;;;;;;;;;;486.70;2380.80;;;;;;5033858;28;19910;-61
2022/09/05 01:46:54;;;;;;;;;;;486.80;2380.80;;;;;;5033566;28;19909;-61
2022/09/05 01:49:26;;;;;;;;;;;486.90;2380.80;;;;;;5033362;28;19917;-61
2022/09/05 01:52:10;;;;;;;;;;;486.80;2380.80;;;;;;5033402;28;19919;-62
2022/09/05 01:54:46;;;;;;;;;;;486.80;2380.80;;;;;;5033626;28;19920;-59
2022/09/05 01:57:17;;;;;;;;;;;486.70;2380.80;;;;;;5033272;28;20023;-60
2022/09/05 01:59:55;;;;;;;;;;;486.60;2380.80;;;;;;5033310;28;19916;-62
2022/09/05 02:02:39;;;;;;;;;;;486.60;2380.80;;;;;;5033369;28;19971;-58
2022/09/05 02:05:10;;;;;;;;;;;486.50;2380.80;;;;;;5033153;28;20386;-61
2022/09/05 02:07:44;;;;;;;;;;;486.50;2380.80;;;;;;5033367;28;19955;-62
2022/09/05 02:10:10;;;;;;;;;;;486.50;2380.80;;;;;;5033052;28;19918;-58
2022/09/05 02:12:35;;;;;;;;;;;486.50;2380.80;;;;;;5033504;28;19910;-61
2022/09/05 02:15:19;;;;;;;;;;;486.50;2380.80;;;;;;5033085;28;20275;-62
2022/09/05 02:17:49;;;;;;;;;;;486.50;2380.80;;;;;;5033056;28;20379;-61
2022/09/05 02:20:19;;;;;;;;;;;486.50;2380.80;;;;;;5033095;28;19916;-60
2022/09/05 02:22:56;;;;;;;;;;;486.40;2380.80;;;;;;5032798;28;19930;-61
2022/09/05 02:25:40;;;;;;;;;;;486.50;2380.80;;;;;;5033023;28;19917;-62
2022/09/05 02:28:19;;;;;;;;;;;486.50;2380.80;;;;;;5015237;28;19963;-62
2022/09/05 02:30:48;;;;;;;;;;;486.50;2380.80;;;;;;5032881;28;19918;-60
2022/09/05 02:33:13;;;;;;;;;;;486.40;2380.80;;;;;;5032583;28;19916;-61
2022/09/05 02:35:45;;;;;;;;;;;486.40;2380.80;;;;;;5032903;28;19913;-62
2022/09/05 02:38:17;;;;;;;;;;;486.40;2380.80;;;;;;5032561;28;19909;-62
2022/09/05 02:41:09;;;;;;;;;;;461.70;2380.80;;;;;;5032482;28;19913;-64
2022/09/05 02:43:44;;;;;;;;;;;461.70;2380.80;;;;;;5001964;28;19909;-63
2022/09/05 02:46:09;;;;;;;;;;;461.70;2380.80;;;;;;5032510;28;19936;-63
2022/09/05 02:48:38;;;;;;;;;;;461.60;2380.80;;;;;;5032381;28;19964;-62
2022/09/05 02:51:11;;;;;;;;;;;461.60;2380.80;;;;;;5032018;28;20334;-64
2022/09/05 02:53:38;;;;;;;;;;;461.60;2380.80;;;;;;5032531;28;19913;-62
2022/09/05 02:56:16;;;;;;;;;;;461.60;2380.80;;;;;;5032201;28;19935;-62
2022/09/05 02:58:58;;;;;;;;;;;461.50;2380.80;;;;;;5032183;28;19996;-61
2022/09/05 03:01:42;;;;;;;;;;;461.50;2380.80;;;;;;5032206;28;19916;-61
2022/09/05 03:04:17;;;;;;;;;;;461.50;2380.80;;;;;;5032316;28;19909;-61
2022/09/05 03:07:01;;;;;;;;;;;461.40;2380.80;;;;;;5031974;28;19910;-62
2022/09/05 03:09:34;;;;;;;;;;;461.50;2380.80;;;;;;5032135;28;19917;-62
2022/09/05 03:12:00;;;;;;;;;;;461.40;2380.80;;;;;;5032211;28;19960;-62
2022/09/05 03:14:43;;;;;;;;;;;461.40;2380.80;;;;;;5032261;28;19909;-62
2022/09/05 03:17:27;;;;;;;;;;;461.40;2380.80;;;;;;5032030;28;19996;-63
2022/09/05 03:19:53;;;;;;;;;;;461.40;2380.80;;;;;;5031912;28;19909;-64
2022/09/05 03:22:54;;;;;;;;;;;461.40;2380.80;;;;;;5031856;28;19932;-63
2022/09/05 03:25:32;;;;;;;;;;;461.50;2380.80;;;;;;4951563;29;20336;-64
2022/09/05 03:28:02;;;;;;;;;;;461.50;2380.80;;;;;;4951888;29;20007;-63
2022/09/05 03:30:46;;;;;;;;;;;461.40;2380.80;;;;;;4951528;29;20018;-62
2022/09/05 03:33:17;;;;;;;;;;;461.40;2380.80;;;;;;4935286;29;19917;-58
2022/09/05 03:36:01;;;;;;;;;;;461.40;2380.80;;;;;;4951469;29;19941;-63
2022/09/05 03:38:45;;;;;;;;;;;461.40;2380.80;;;;;;4951563;29;19966;-64
2022/09/05 03:41:11;;;;;;;;;;;461.30;2380.80;;;;;;4951383;29;19917;-61
2022/09/05 03:43:52;;;;;;;;;;;461.30;2380.80;;;;;;4951523;29;19914;-63
2022/09/05 03:46:24;;;;;;;;;;;461.40;2380.80;;;;;;4951649;29;19945;-62
2022/09/05 03:48:53;;;;;;;;;;;461.40;2380.80;;;;;;4951090;29;19921;-61
2022/09/05 03:51:24;;;;;;;;;;;461.40;2380.80;;;;;;4951425;29;19963;-64
2022/09/05 03:53:52;;;;;;;;;;;461.50;2380.80;;;;;;4951270;29;20288;-58
2022/09/05 03:56:24;;;;;;;;;;;461.50;2380.80;;;;;;4951417;29;19949;-63
2022/09/05 03:59:08;;;;;;;;;;;461.40;2380.80;;;;;;4975265;28;19925;-62
2022/09/05 04:01:46;;;;;;;;;;;461.40;2380.80;;;;;;5030556;28;19915;-63
2022/09/05 04:04:32;;;;;;;;;;;461.40;2380.80;;;;;;5031086;28;20381;-58
2022/09/05 04:06:59;;;;;;;;;;;461.50;2380.80;;;;;;5031367;28;19962;-58
2022/09/05 04:09:31;;;;;;;;;;;461.50;2380.80;;;;;;5031145;28;20010;-63
2022/09/05 04:12:09;;;;;;;;;;;461.50;2380.80;;;;;;5031377;28;19983;-63
2022/09/05 04:14:37;;;;;;;;;;;461.50;2380.80;;;;;;5031107;28;19996;-63
2022/09/05 04:17:08;;;;;;;;;;;461.50;2380.80;;;;;;5030967;28;19909;-62
2022/09/05 04:19:39;;;;;;;;;;;461.50;2380.80;;;;;;5030894;28;19909;-63
2022/09/05 04:22:11;;;;;;;;;;;461.50;2380.80;;;;;;5030729;28;19921;-64
2022/09/05 04:24:48;;;;;;;;;;;461.50;2380.80;;;;;;5031088;28;20012;-64
2022/09/05 04:27:27;;;;;;;;;;;461.50;2380.80;;;;;;5030753;28;19916;-62
2022/09/05 04:29:53;;;;;;;;;;;461.60;2380.80;;;;;;5030890;28;19963;-62
2022/09/05 04:32:34;;;;;;;;;;;461.70;2380.80;;;;;;5030948;28;20363;-64
2022/09/05 04:35:14;;;;;;;;;;;461.70;2380.80;;;;;;5030733;28;20263;-61
2022/09/05 04:37:53;;;;;;;;;;;461.70;2380.80;;;;;;5030757;28;19913;-60
2022/09/05 04:40:28;;;;;;;;;;;461.70;2380.80;;;;;;5031151;28;20055;-63
2022/09/05 04:42:56;;;;;;;;;;;486.40;2380.80;;;;;;5030782;28;19909;-62
2022/09/05 04:45:22;;;;;;;;;;;461.70;2380.80;;;;;;5030809;28;20020;-62
2022/09/05 04:47:51;;;;;;;;;;;486.40;2380.80;;;;;;5030896;28;20007;-62
2022/09/05 04:50:18;;;;;;;;;;;461.70;2380.80;;;;;;5031004;28;19957;-62
2022/09/05 04:52:58;;;;;;;;;;;486.40;2380.80;;;;;;5030679;28;19917;-62
2022/09/05 04:55:29;;;;;;;;;;;486.50;2380.80;;;;;;5030706;28;19917;-62
2022/09/05 04:58:06;;;;;;;;;;;486.60;2380.80;;;;;;5030600;28;19909;-61
2022/09/05 05:00:36;;;;;;;;;;;486.60;2380.80;;;;;;5030726;28;19917;-62
2022/09/05 05:03:09;;;;;;;;;;;486.70;2380.80;;;;;;5030569;28;19909;-63
2022/09/05 05:05:47;;;;;;;;;;;486.80;2380.80;;;;;;5030797;28;20439;-63
2022/09/05 05:08:18;;;;;;;;;;;487.00;2380.80;;;;;;5030555;28;19909;-64
2022/09/05 05:10:43;;;;;;;;;;;487.00;2380.80;;;;;;5030553;28;19921;-61
2022/09/05 05:13:15;;;;;;;;;;;487.10;2380.80;;;;;;5030847;28;20004;-64
2022/09/05 05:15:47;;;;;;;;;;;487.10;2380.80;;;;;;5034059;28;19909;-63
2022/09/05 05:18:12;;;;;;;;;;;487.10;2380.80;;;;;;5015961;28;19996;-63
2022/09/05 05:20:50;;;;;;;;;;;487.20;2380.80;;;;;;5034266;28;19933;-63
2022/09/05 05:23:16;;;;;;;;;;;512.00;2380.80;;;;;;5016490;28;20015;-63
2022/09/05 05:25:45;;;;;;;;;;;512.10;2380.80;;;;;;5034339;28;19910;-64
2022/09/05 05:28:12;;;;;;;;;;;512.40;2380.80;;;;;;5033994;28;20331;-63
2022/09/05 05:30:38;;;;;;;;;;;512.60;2380.80;;;;;;5034019;28;20295;-59
2022/09/05 05:33:17;;;;;;;;;;;512.70;2380.80;;;;;;5033693;28;19955;-61
2022/09/05 05:35:45;;;;;;;;;;;537.60;2406.40;;;;;;5033597;28;19909;-63
2022/09/05 05:38:21;;;;;;;;;;;537.80;2406.40;;;;;;5033528;28;19916;-61
2022/09/05 05:41:00;;;;;;;;;;;538.10;2406.40;;;;;;5033745;28;19909;-60
2022/09/05 05:43:31;;;;;;;;;;;538.00;2406.40;;;;;;5034055;28;19952;-62
2022/09/05 05:45:58;;;;;;;;;;;538.30;2406.40;;;;;;5033772;28;19909;-61
2022/09/05 05:48:29;;;;;;;;;;;538.40;2406.40;;;;;;5033360;28;19909;-60
2022/09/05 05:51:12;;;;;;;;;;;538.40;2406.40;;;;;;5033462;28;19920;-63
2022/09/05 05:53:43;;;;;;;;;;;563.20;2432.00;;;;;;5033789;28;19913;-61
2022/09/05 05:56:29;;;;;;;;;;;563.50;2432.00;;;;;;5033682;28;20406;-62
2022/09/05 05:59:12;;;;;;;;;;;563.60;2432.00;;;;;;5033089;28;20003;-62
2022/09/05 06:01:41;;;;;;;;;;;563.90;2432.00;;;;;;5033724;28;19909;-61
2022/09/05 06:04:24;;;;;;;;;;;563.70;2432.00;;;;;;5033666;28;19909;-62
2022/09/05 06:07:15;;;;;;;;;;;563.70;2432.00;;;;;;5033256;28;19909;-58
2022/09/05 06:09:59;;;;;;;;;;;588.80;2432.00;;;;;;5033333;28;20009;-60
2022/09/05 06:12:27;;;;;;;;;;;614.50;2432.00;;;;;;5033272;28;19909;-62
2022/09/05 06:14:53;;;;;;;;;;;614.80;2432.00;;;;;;5033109;28;19909;-61
2022/09/05 06:17:37;;;;;;;;;;;614.80;2432.00;;;;;;5033206;28;19959;-61
2022/09/05 06:20:21;;;;;;;;;;;615.10;2432.00;;;;;;5015193;28;20326;-61
2022/09/05 06:23:05;;;;;;;;;;;615.20;2432.00;;;;;;5032730;28;20010;-58
2022/09/05 06:25:49;;;;;;;;;;;615.20;2432.00;;;;;;5032410;28;20271;-59
2022/09/05 06:28:15;;;;;;;;;;;;;;;;;;5033013;28;20046;-58
2022/09/05 06:30:48;;;;;;;;;;;666.40;2432.00;;;;;;5032560;28;20019;-58
2022/09/05 06:33:33;;;;;;;;;;;768.50;2022.40;;;;;;5032743;28;19916;-61
2022/09/05 06:36:20;;;;;;;;;;;794.50;1868.80;;;;;;5032917;28;19913;-62
2022/09/05 06:38:45;;;;;;;;;;;820.10;1740.80;;;;;;5032695;28;19916;-57
2022/09/05 06:41:12;;;;;;;;;;;820.10;1740.80;;;;;;5032583;28;19909;-61
2022/09/05 06:43:56;;;;;;;;;;;845.20;1689.60;;;;;;5032684;28;20272;-57
2022/09/05 06:46:22;;;;;;;;;;;819.40;1740.80;;;;;;5032522;28;20000;-62
2022/09/05 06:48:54;;;;;;;;;;;819.20;1740.80;;;;;;5032532;28;19913;-63
2022/09/05 06:55:01;;;;;;;;;;;819.60;1740.80;;;;;;5050169;23;19955;-59
2022/09/05 06:58:02;;;;;;;;;;;845.40;1664.00;;;;;;5041308;22;19925;-62
2022/09/05 07:00:37;;;;;;;;;;;870.70;1612.80;;;;;;4971859;28;19932;-62
2022/09/05 07:06:29;;;;;;;;;;;947.60;1408.00;;;;;;5014647;23;19997;-60
2022/09/05 07:08:55;;;;;;;;;;;;;;;;;;5012364;28;19960;-63
2022/09/05 07:11:21;;;;;;;;;;;947.40;1433.60;;;;;;5012378;28;19955;-61
2022/09/05 07:14:07;;;;;;;;;;;998.50;1356.80;;;;;;5012251;28;19910;-61
2022/09/05 07:23:22;;;;;;;;;;;1024.40;1280.00;;;;;;4957991;23;20287;-61
2022/09/05 07:25:49;;;;;;;;;;;1024.40;1228.80;;;;;;5011385;28;19913;-61
2022/09/05 07:28:18;;;;;;;;;;;1024.30;1254.40;;;;;;5011309;28;20385;-62
2022/09/05 07:30:48;;;;;;;;;;;1024.10;1254.40;;;;;;5011112;28;19976;-62
2022/09/05 07:33:26;;;;;;;;;;;1024.50;1228.80;;;;;;5011228;28;19914;-61
2022/09/05 07:35:54;;;;;;;;;;;999.20;1280.00;;;;;;5011005;28;20356;-61
2022/09/05 07:38:22;;;;;;;;;;;1049.70;1228.80;;;;;;5011066;28;20271;-62
2022/09/05 07:40:50;;;;;;;;;;;1049.80;1203.20;;;;;;5011233;28;19909;-62
2022/09/05 07:43:38;;;;;;;;;;;1049.70;1228.80;;;;;;5023003;28;20428;-61
2022/09/05 07:46:11;;;;;;;;;;;1049.90;1228.80;;;;;;5030898;28;19920;-63
2022/09/05 07:48:46;;;;;;;;;;;1075.40;1177.60;;;;;;5030669;28;19916;-61
2022/09/05 07:51:18;;;;;;;;;;;1024.60;1177.60;;;;;;5028539;28;19913;-62
2022/09/05 07:53:43;;;;;;;;;;;1024.20;1203.20;;;;;;5029126;28;19921;-62
2022/09/05 07:56:09;;;;;;;;;;;998.80;1280.00;;;;;;5029381;28;19981;-62
2022/09/05 07:58:40;;;;;;;;;;;1024.10;1228.80;;;;;;5029071;28;19909;-62
2022/09/05 08:01:08;;;;;;;;;;;1024.10;1228.80;;;;;;5029032;28;20263;-63
2022/09/05 08:03:34;;;;;;;;;;;999.20;1254.40;;;;;;5028719;28;19998;-62
2022/09/05 08:06:03;;;;;;;;;;;998.80;1228.80;;;;;;5029118;28;19949;-63
2022/09/05 08:08:44;;;;;;;;;;;973.30;1280.00;;;;;;5029170;28;20347;-62
2022/09/05 08:11:12;;;;;;;;;;;1024.00;1254.40;;;;;;5029256;28;19920;-61
2022/09/05 08:13:41;;;;;;;;;;;999.20;1228.80;;;;;;5028894;28;19993;-61
2022/09/05 08:16:09;;;;;;;;;;;998.50;1280.00;;;;;;5028465;28;19925;-62
2022/09/05 08:18:40;;;;;;;;;;;998.80;1254.40;;;;;;5028877;28;19914;-62
2022/09/05 08:21:17;;;;;;;;;;;998.90;1254.40;;;;;;5028879;28;19918;-61
2022/09/05 08:23:48;;;;;;;;;;;1049.80;1203.20;;;;;;5029828;28;20003;-61
2022/09/05 08:26:23;;;;;;;;;;;1024.50;1177.60;;;;;;5029599;28;20429;-63
2022/09/05 08:29:09;;;;;;;;;;;1024.00;1228.80;;;;;;5028635;28;19928;-63
2022/09/05 08:31:51;;;;;;;;;;;1049.90;1203.20;;;;;;5028585;28;19964;-62
2022/09/05 08:34:20;;;;;;;;;;;1049.70;1203.20;;;;;;5028521;28;19913;-63
2022/09/05 08:36:49;;;;;;;;;;;1049.90;1203.20;;;;;;5028595;28;19916;-62
2022/09/05 08:39:16;;;;;;;;;;;1050.50;1177.60;;;;;;5029071;28;19909;-62
2022/09/05 08:41:42;;;;;;;;;;;998.90;1228.80;;;;;;5030804;28;19964;-62
2022/09/05 08:44:11;;;;;;;;;;;973.20;1280.00;;;;;;5029982;28;20283;-62
2022/09/05 08:47:00;;;;;;;;;;;998.80;1254.40;;;;;;5027830;28;19909;-61
2022/09/05 08:49:32;;;;;;;;;;;973.60;1228.80;;;;;;5031797;28;19917;-62
2022/09/05 08:52:05;;;;;;;;;;;896.20;1331.20;;;;;;5032125;28;19961;-62
2022/09/05 08:54:57;;;;;;;;;;;870.70;1408.00;;;;;;5032502;28;19913;-62
2022/09/05 08:57:41;;;;;;;;;;;845.40;1408.00;;;;;;5031460;28;20273;-61
2022/09/05 09:00:08;;;;;;;;;;;844.90;1459.20;;;;;;5031874;28;19913;-62
2022/09/05 09:02:35;;;;;;;;;;;819.70;1433.60;;;;;;5032155;28;20347;-55
2022/09/05 09:05:10;;;;;;;;;;;794.40;1484.80;;;;;;5033908;28;19932;-56
2022/09/05 09:07:55;;;;;;;;;;;819.20;1536.00;;;;;;5033694;28;19909;-56
2022/09/05 09:10:40;;;;;;;;;;;793.90;1510.40;;;;;;5033433;28;19917;-56
2022/09/05 09:13:18;;;;;;;;;;;768.60;1561.60;;;;;;5033528;28;20428;-57
2022/09/05 09:15:49;;;;;;;;;;;743.10;1638.40;;;;;;5033694;28;19929;-56
2022/09/05 09:18:16;;;;;;;;;;;768.80;1561.60;;;;;;5033660;28;20286;-60
2022/09/05 09:20:47;;;;;;;;;;;793.70;1587.20;;;;;;5033445;28;20380;-60
2022/09/05 09:23:22;;;;;;;;;;;768.90;1561.60;;;;;;5036681;28;19925;-56
2022/09/05 09:25:56;;;;;;;;;;;793.60;1587.20;;;;;;5053563;28;20282;-60
2022/09/05 09:28:34;;;;;;;;;;;768.90;1561.60;;;;;;5053586;28;20370;-56
2022/09/05 09:31:29;;;;;;;;;;;793.70;1561.60;;;;;;5053341;28;19924;-56
2022/09/05 09:33:55;;;;;;;;;;;;;;;;;;4991956;28;19941;-57
2022/09/05 09:36:20;;;;;;;;;;;768.90;1587.20;;;;;;4991997;28;19948;-57
2022/09/05 09:38:46;;;;;;;;;;;768.20;1587.20;;;;;;4991916;28;20050;-56
2022/09/05 09:41:31;;;;;;;;;;;768.00;1561.60;;;;;;4991961;28;19909;-56
2022/09/05 09:43:57;;;;;;;;;;;742.80;1612.80;;;;;;4991484;28;19916;-56
2022/09/05 09:46:36;;;;;;;;;;;742.50;1664.00;;;;;;4991801;28;20360;-56
2022/09/05 09:49:13;;;;;;;;;;;742.50;1664.00;;;;;;4991646;28;19925;-56
2022/09/05 09:51:47;;;;;;;;;;;742.40;1638.40;;;;;;4991343;28;19918;-56
2022/09/05 09:54:33;;;;;;;;;;;742.90;1664.00;;;;;;4991650;28;19964;-56
2022/09/05 09:57:08;;;;;;;;;;;743.10;1612.80;;;;;;4991342;28;19953;-55
2022/09/05 09:59:42;;;;;;;;;;;742.80;1689.60;;;;;;4990681;28;19914;-56
2022/09/05 10:02:21;;;;;;;;;;;743.10;1612.80;;;;;;4991181;28;20371;-55
2022/09/05 10:04:52;;;;;;;;;;;742.90;1664.00;;;;;;4991356;28;19913;-56
2022/09/05 10:07:17;;;;;;;;;;;743.00;1638.40;;;;;;4991613;28;20369;-56
2022/09/05 10:10:03;;;;;;;;;;;742.70;1587.20;;;;;;5007180;28;19927;-56
2022/09/05 10:12:31;;;;;;;;;;;743.00;1587.20;;;;;;5052617;28;20271;-56
2022/09/05 10:15:12;;;;;;;;;;;743.10;1561.60;;;;;;5052477;28;19909;-56
2022/09/05 10:17:55;;;;;;;;;;;742.40;1561.60;;;;;;5052441;28;19909;-60
2022/09/05 10:20:39;;;;;;;;;;;742.60;1510.40;;;;;;5052456;28;19909;-56
2022/09/05 10:23:06;;;;;;;;;;;743.10;1510.40;;;;;;5052319;28;20304;-56
2022/09/05 10:25:50;;;;;;;;;;;743.20;1510.40;;;;;;5052474;28;19916;-56
2022/09/05 10:28:26;;;;;;;;;;;742.40;1510.40;;;;;;5052348;28;19916;-56
2022/09/05 10:30:54;;;;;;;;;;;742.40;1510.40;;;;;;5052572;28;20007;-56
2022/09/05 10:33:22;;;;;;;;;;;742.90;1536.00;;;;;;5052203;28;19913;-56
2022/09/05 10:35:50;;;;;;;;;;;743.20;1510.40;;;;;;5052210;28;20445;-56
2022/09/05 10:38:32;;;;;;;;;;;743.30;1536.00;;;;;;5052212;28;20290;-56
2022/09/05 10:41:10;;;;;;;;;;;742.60;1510.40;;;;;;5051992;28;19916;-55
2022/09/05 10:43:48;;;;;;;;;;;742.50;1536.00;;;;;;5051881;28;20393;-56
2022/09/05 10:46:19;;;;;;;;;;;743.00;1536.00;;;;;;5052107;28;19909;-56
2022/09/05 10:48:51;;;;;;;;;;;743.20;1536.00;;;;;;5051782;28;19908;-57
2022/09/05 10:51:17;;;;;;;;;;;743.00;1510.40;;;;;;5051922;28;20011;-61
2022/09/05 10:54:01;;;;;;;;;;;742.90;1510.40;;;;;;5051891;28;20010;-60
2022/09/05 10:56:36;;;;;;;;;;;742.80;1536.00;;;;;;5051791;28;19913;-59
2022/09/05 10:59:03;;;;;;;;;;;742.90;1536.00;;;;;;5051769;28;20290;-58
2022/09/05 11:01:40;;;;;;;;;;;742.80;1587.20;;;;;;5051535;28;19915;-61
2022/09/05 11:04:15;;;;;;;;;;;743.00;1587.20;;;;;;5051510;28;19908;-55
2022/09/05 11:06:41;;;;;;;;;;;743.00;1587.20;;;;;;5051548;28;20436;-56
2022/09/05 11:09:12;;;;;;;;;;;717.70;1561.60;;;;;;5051816;28;19924;-55
2022/09/05 11:11:54;;;;;;;;;;;717.60;1612.80;;;;;;5050112;28;20366;-57
2022/09/05 11:14:22;;;;;;;;;;;742.50;1612.80;;;;;;5051503;28;19912;-61
2022/09/05 11:16:50;;;;;;;;;;;717.70;1587.20;;;;;;5051495;28;20309;-55
2022/09/05 11:19:25;;;;;;;;;;;742.60;1612.80;;;;;;5051525;28;20007;-56
2022/09/05 11:21:53;;;;;;;;;;;742.60;1612.80;;;;;;5051052;28;19928;-60
2022/09/05 11:24:22;;;;;;;;;;;742.80;1612.80;;;;;;5051312;28;19909;-61
2022/09/05 11:26:53;;;;;;;;;;;717.70;1638.40;;;;;;5051242;28;20313;-56
2022/09/05 11:29:24;;;;;;;;;;;742.40;1664.00;;;;;;5051052;28;19948;-56
2022/09/05 11:32:08;;;;;;;;;;;717.50;1664.00;;;;;;5051232;28;20424;-56
2022/09/05 11:34:36;;;;;;;;;;;717.60;1689.60;;;;;;5051121;28;19936;-55
2022/09/05 11:37:06;;;;;;;;;;;742.40;1638.40;;;;;;5051093;28;19915;-61
2022/09/05 11:39:47;;;;;;;;;;;742.60;1612.80;;;;;;5051116;28;19935;-60
2022/09/05 11:42:33;;;;;;;;;;;717.50;1638.40;;;;;;5051029;28;20335;-56
2022/09/05 11:45:10;;;;;;;;;;;716.90;1664.00;;;;;;5050037;28;19955;-60
2022/09/05 11:47:45;;;;;;;;;;;717.20;1664.00;;;;;;5050642;28;20453;-56
2022/09/05 11:50:24;;;;;;;;;;;716.90;1664.00;;;;;;5050806;28;20015;-56
2022/09/05 11:52:58;;;;;;;;;;;717.40;1561.60;;;;;;5050975;28;19917;-56
2022/09/05 11:55:24;;;;;;;;;;;717.60;1638.40;;;;;;5050447;28;19913;-56
2022/09/05 11:58:20;;;;;;;;;;;717.20;1612.80;;;;;;5050831;28;19955;-56
2022/09/05 12:00:49;;;;;;;;;;;717.20;1612.80;;;;;;5050502;28;19909;-56
2022/09/05 12:03:24;;;;;;;;;;;716.90;1638.40;;;;;;5050608;28;19909;-56
2022/09/05 12:06:12;;;;;;;;;;;717.10;1715.20;;;;;;5050607;28;19916;-56
2022/09/05 12:08:54;;;;;;;;;;;717.20;1689.60;;;;;;5050104;28;19909;-56
2022/09/05 12:11:20;;;;;;;;;;;692.10;1612.80;;;;;;5050707;28;19931;-56
2022/09/05 12:13:47;;;;;;;;;;;691.70;1638.40;;;;;;5050450;28;20259;-56
2022/09/05 12:16:18;;;;;;;;;;;716.90;1612.80;;;;;;5050592;28;20362;-56
2022/09/05 12:18:54;;;;;;;;;;;717.30;1689.60;;;;;;5050396;28;19913;-56
2022/09/05 12:21:22;;;;;;;;;;;717.60;1689.60;;;;;;5050271;28;19971;-59
2022/09/05 12:23:57;;;;;;;;;;;717.60;1587.20;;;;;;5049870;28;19912;-57
2022/09/05 12:26:22;;;;;;;;;;;717.70;1612.80;;;;;;5050449;28;19909;-58
2022/09/05 12:28:59;;;;;;;;;;;717.10;1561.60;;;;;;5050375;28;19909;-60
2022/09/05 12:31:29;;;;;;;;;;;717.10;1561.60;;;;;;5050222;28;20320;-60
2022/09/05 12:33:55;;;;;;;;;;;692.00;1561.60;;;;;;5050280;28;19909;-58
2022/09/05 12:36:30;;;;;;;;;;;717.00;1612.80;;;;;;5050296;28;19909;-56
2022/09/05 12:39:01;;;;;;;;;;;716.90;1664.00;;;;;;5050118;28;19909;-60
2022/09/05 12:41:36;;;;;;;;;;;716.90;1664.00;;;;;;5050063;28;20000;-61
2022/09/05 12:44:02;;;;;;;;;;;717.00;1587.20;;;;;;5050257;28;20309;-61
2022/09/05 12:46:46;;;;;;;;;;;717.20;1561.60;;;;;;5050321;28;19909;-61
2022/09/05 12:49:29;;;;;;;;;;;717.00;1638.40;;;;;;5050345;28;19917;-61
2022/09/05 12:51:59;;;;;;;;;;;717.10;1561.60;;;;;;5049748;28;19984;-60
2022/09/05 12:54:26;;;;;;;;;;;717.00;1561.60;;;;;;5050157;28;19967;-56
2022/09/05 12:57:01;;;;;;;;;;;717.00;1638.40;;;;;;5050130;28;20370;-55
2022/09/05 12:59:28;;;;;;;;;;;717.10;1612.80;;;;;;5049881;28;19975;-56
2022/09/05 13:02:02;;;;;;;;;;;716.80;1664.00;;;;;;5050193;28;20390;-60
2022/09/05 13:04:46;;;;;;;;;;;716.90;1664.00;;;;;;5049887;28;19909;-60
2022/09/05 13:07:17;;;;;;;;;;;717.10;1638.40;;;;;;5050187;28;20278;-56
2022/09/05 13:09:42;;;;;;;;;;;717.20;1587.20;;;;;;5058812;28;19917;-56
2022/09/05 13:12:22;;;;;;;;;;;717.20;1612.80;;;;;;5069759;28;19916;-56
2022/09/05 13:14:47;;;;;;;;;;;717.40;1664.00;;;;;;5069774;28;19909;-56
2022/09/05 13:17:14;;;;;;;;;;;717.70;1638.40;;;;;;5070277;28;19909;-55
2022/09/05 13:19:49;;;;;;;;;;;742.40;1664.00;;;;;;5069860;28;20658;-55
2022/09/05 13:22:17;;;;;;;;;;;742.40;1587.20;;;;;;5069517;28;20022;-56
2022/09/05 13:24:45;;;;;;;;;;;742.70;1638.40;;;;;;5069895;28;20413;-66
2022/09/05 13:27:16;;;;;;;;;;;742.40;1561.60;;;;;;5065947;28;20018;-57
2022/09/05 13:29:52;;;;;;;;;;;742.50;1612.80;;;;;;5068743;28;19920;-57
2022/09/05 13:32:38;;;;;;;;;;;742.50;1689.60;;;;;;5066061;28;20007;-57
2022/09/05 13:35:07;;;;;;;;;;;742.60;1612.80;;;;;;5050836;28;19916;-57
2022/09/05 13:37:34;;;;;;;;;;;742.60;1638.40;;;;;;5070894;28;19909;-58
2022/09/05 13:40:06;;;;;;;;;;;742.60;1612.80;;;;;;5070823;28;20442;-56
2022/09/05 13:42:35;;;;;;;;;;;742.50;1536.00;;;;;;5070809;28;20377;-57
2022/09/05 13:45:00;;;;;;;;;;;717.50;1536.00;;;;;;5070505;28;19909;-57
2022/09/05 13:47:44;;;;;;;;;;;717.20;1587.20;;;;;;5070674;28;20316;-57
2022/09/05 13:50:27;;;;;;;;;;;717.40;1612.80;;;;;;5070705;28;19920;-57
2022/09/05 13:52:53;;;;;;;;;;;717.40;1638.40;;;;;;5070786;28;20367;-57
2022/09/05 13:55:37;;;;;;;;;;;717.40;1612.80;;;;;;5070000;28;20027;-65
2022/09/05 13:58:09;;;;;;;;;;;717.40;1638.40;;;;;;5070058;28;20304;-57
2022/09/05 14:00:37;;;;;;;;;;;717.20;1561.60;;;;;;5059494;28;19995;-57
2022/09/05 14:03:18;;;;;;;;;;;717.10;1561.60;;;;;;5067522;28;20282;-56
2022/09/05 14:06:03;;;;;;;;;;;717.20;1612.80;;;;;;5070188;28;20255;-63
2022/09/05 14:08:32;;;;;;;;;;;717.10;1612.80;;;;;;5070175;28;19916;-57
2022/09/05 14:11:16;;;;;;;;;;;717.20;1612.80;;;;;;5061374;28;19928;-58
2022/09/05 14:13:47;;;;;;;;;;;717.30;1664.00;;;;;;5050221;28;19962;-59
2022/09/05 14:16:19;;;;;;;;;;;717.00;1587.20;;;;;;5050269;28;20282;-66
2022/09/05 14:21:34;;;;;;;;;;;692.10;1587.20;;;;;;5050224;28;19984;-62
2022/09/05 14:24:10;;;;;;;;;;;692.00;1587.20;;;;;;5052181;28;19913;-56
2022/09/05 14:26:49;;;;;;;;;;;716.90;1612.80;;;;;;5060599;28;19923;-55
2022/09/05 14:29:18;;;;;;;;;;;716.80;1612.80;;;;;;5056683;28;19952;-59
2022/09/05 14:31:50;;;;;;;;;;;692.00;1638.40;;;;;;5070683;28;20162;-63
2022/09/05 14:34:26;;;;;;;;;;;692.10;1638.40;;;;;;5070449;28;19912;-64
2022/09/05 14:37:04;;;;;;;;;;;691.80;1612.80;;;;;;5066852;28;20008;-64